Reuben Lasker — WTEG — position and weather

sailwx.info

Track history (hours):
 
Tides and Currents Weather Stations Pressure Air Temp Water Temp Dewpoint Dewpoint Depression Visibility Wind Speed Wind Dir Waves Ship Positions

Oceanographic research ship Reuben Lasker (United States)

Last reported at 2018-Jun-22 18:29 UTC. Time now 2018-Jun-22 18:37 UTC.
Position N 37°48' W 122°24'.

Length 64 m; draft 6.1 m.

Type: Other ship. MMSI: 369970573.

Date/timePositionNaut miles runAvg speedWind from/ knotsBaromVisibWave heightAir tempDewpointWater temp
2018-Jun-22 18:29N 37°48' W 122°24'0 0.0
2018-Jun-22 17:59N 37°48' W 122°24'0 0.0
2018-Jun-22 17:26N 37°48' W 122°24'0 0.0
2018-Jun-22 16:59N 37°48' W 122°24'0 0.0
2018-Jun-22 16:26N 37°48' W 122°24'0 0.0
2018-Jun-22 15:59N 37°48' W 122°24'0 0.0
2018-Jun-22 15:29N 37°48' W 122°24'0 0.0
2018-Jun-22 14:59N 37°48' W 122°24'0 0.0
2018-Jun-22 14:26N 37°48' W 122°24'0 0.0
2018-Jun-22 13:56N 37°48' W 122°24'0 0.0
2018-Jun-22 13:26N 37°48' W 122°24'0 0.0
2018-Jun-22 12:56N 37°48' W 122°24'0 0.0
2018-Jun-22 12:26N 37°48' W 122°24'0 0.0
2018-Jun-22 11:50N 37°48' W 122°24'0 0.0
2018-Jun-22 11:26N 37°48' W 122°24'0 0.0
2018-Jun-22 10:56N 37°48' W 122°24'0 0.0
2018-Jun-22 10:29N 37°48' W 122°24'0 0.0
2018-Jun-22 09:56N 37°48' W 122°24'0 0.0
2018-Jun-22 09:26N 37°48' W 122°24'0 0.0
2018-Jun-22 08:56N 37°48' W 122°24'0 0.0
2018-Jun-22 08:29N 37°48' W 122°24'0 0.0
2018-Jun-22 07:56N 37°48' W 122°24'0 0.0
2018-Jun-22 07:29N 37°48' W 122°24'0 0.0
2018-Jun-22 06:59N 37°48' W 122°24'0 0.0
2018-Jun-22 06:29N 37°48' W 122°24'0 0.0
2018-Jun-22 05:59N 37°48' W 122°24'0 0.0
2018-Jun-22 05:26N 37°48' W 122°24'0 0.0
2018-Jun-22 04:56N 37°48' W 122°24'0 0.0
2018-Jun-22 04:29N 37°48' W 122°24'0 0.0
2018-Jun-22 03:59N 37°48' W 122°24'0 0.0
2018-Jun-22 03:29N 37°48' W 122°24'0 0.0
2018-Jun-22 02:59N 37°48' W 122°24'0 0.0
2018-Jun-22 02:29N 37°48' W 122°24'0 0.0
2018-Jun-22 01:59N 37°48' W 122°24'0 0.0
2018-Jun-22 01:29N 37°48' W 122°24'0 0.0
2018-Jun-22 00:56N 37°48' W 122°24'0 0.0
2018-Jun-22 00:29N 37°48' W 122°24'0 0.0
2018-Jun-21 23:59N 37°48' W 122°24'0 0.0
2018-Jun-21 23:26N 37°48' W 122°24'0 0.0
2018-Jun-21 22:59N 37°48' W 122°24'0 0.0
2018-Jun-21 22:29N 37°48' W 122°24'0 0.0
2018-Jun-21 21:56N 37°48' W 122°24'0 0.0
2018-Jun-21 21:26N 37°48' W 122°24'0 0.0
2018-Jun-21 20:59N 37°48' W 122°24'0 0.0
2018-Jun-21 20:26N 37°48' W 122°24'0 0.0
2018-Jun-21 19:59N 37°48' W 122°24'0 0.0
2018-Jun-21 19:29N 37°48' W 122°24'0 0.0
2018-Jun-21 18:59N 37°48' W 122°24'0 0.0
2018-Jun-21 18:29N 37°48' W 122°24'0 0.0
2018-Jun-21 17:59N 37°48' W 122°24'0 0.0
2018-Jun-21 17:26N 37°48' W 122°24'0 0.0
2018-Jun-21 16:56N 37°48' W 122°24'0 0.0
2018-Jun-21 16:29N 37°48' W 122°24'0 0.0
2018-Jun-21 15:59N 37°48' W 122°24'0 0.0
2018-Jun-21 15:26N 37°48' W 122°24'0 0.0
2018-Jun-21 15:00N 37°48' W 122°24'013.7
2018-Jun-21 15:00N 37°48' W 122°24'4 8.6 240 / 91016.8 11.5 15.3
2018-Jun-21 14:31N 37°49' W 122°29'713.0
2018-Jun-21 14:00N 37°46' W 122°37'5297.6
2018-Jun-21 14:00N 37°48' W 122°42'4 8.9 300 / 251016.8 10.510.513.0
2018-Jun-21 13:30N 37°44' W 122°43'510.8
2018-Jun-21 13:00N 37°39' W 122°47'3270.1
2018-Jun-21 13:00N 37°36' W 122°48'3 6.0 330 / 151016.8 14.1 13.0
2018-Jun-21 12:30N 37°39' W 122°48'3 5.8
2018-Jun-21 12:00N 37°36' W 122°49'159.7
2018-Jun-21 12:00N 37°36' W 122°48'4 8.0 310 / 261016.0 12.0 13.0
2018-Jun-21 11:30N 37°33' W 122°51'4 8.2
2018-Jun-21 11:00N 37°36' W 122°54'325.2 320 / 251016.6 12.0 13.0
2018-Jun-21 10:52N 37°34' W 122°51'2 4.2
2018-Jun-21 10:30N 37°36' W 122°51'0 0.7
2018-Jun-21 10:00N 37°36' W 122°51'2171.6
2018-Jun-21 10:00N 37°36' W 122°48'2 3.4 300 / 181016.4 12.0 13.0
2018-Jun-21 09:30N 37°35' W 122°50'1 2.3
2018-Jun-21 09:00N 37°35' W 122°48'171.9
2018-Jun-21 09:00N 37°36' W 122°48'1 2.9 320 / 181016.7 12.1 13.1
2018-Jun-21 08:30N 37°35' W 122°50'1 2.1
2018-Jun-21 08:00N 37°36' W 122°50'3663.9
2018-Jun-21 08:00N 37°36' W 122°54'4 8.2 320 / 221017.0 14.6 13.0
2018-Jun-21 07:30N 37°40' W 122°54'1 2.7
2018-Jun-21 07:00N 37°41' W 122°55'168.8
2018-Jun-21 07:00N 37°42' W 122°54'1 2.7 320 / 221016.6 12.212.212.8
2018-Jun-21 06:30N 37°41' W 122°54'4 7.7
2018-Jun-21 06:00N 37°45' W 122°53'3272.0
2018-Jun-21 06:00N 37°48' W 122°54'1 2.9 310 / 231016.7 12.212.212.7
2018-Jun-21 05:30N 37°47' W 122°53'1 2.1
2018-Jun-21 05:00N 37°46' W 122°52'2191.9
2018-Jun-21 05:00N 37°48' W 122°54'1 2.5 300 / 211016.5 12.410.712.4
2018-Jun-21 04:29N 37°47' W 122°53'0 0.9
2018-Jun-21 04:00N 37°47' W 122°53'165.4
2018-Jun-21 04:00N 37°48' W 122°54'2 3.6 310 / 191016.4 12.5 12.8
2018-Jun-21 03:30N 37°47' W 122°52'1 1.7
2018-Jun-21 03:00N 37°46' W 122°51'3196.9
2018-Jun-21 03:00N 37°48' W 122°54'2 3.6 290 / 241016.5 12.6 12.5
2018-Jun-21 02:30N 37°46' W 122°55'612.0
2018-Jun-21 02:00N 37°42' W 123°00'36161.6 290 / 291016.8 12.4 11.6
2018-Jun-21 01:59N 37°45' W 123°00'4 7.4
2018-Jun-21 01:30N 37°43' W 123°04'1 1.1
2018-Jun-21 01:00N 37°44' W 123°04'2173.7
2018-Jun-21 01:00N 37°42' W 123°06'2 4.1 310 / 181017.1 12.512.011.8
2018-Jun-21 00:30N 37°43' W 123°04'1 1.2
2018-Jun-21 00:00N 37°44' W 123°04'510.2
2018-Jun-20 23:30N 37°49' W 123°05'611.8
2018-Jun-20 23:00N 37°55' W 123°08'1183.7
2018-Jun-20 23:00N 37°54' W 123°06'713.5 310 / 171017.9 13.012.212.4
2018-Jun-20 22:30N 38°00' W 123°08'611.7
2018-Jun-20 22:00N 38°06' W 123°10'2144.7
2018-Jun-20 22:00N 38°06' W 123°12'4 8.2 310 / 161018.2 12.412.412.3
2018-Jun-20 21:30N 38°10' W 123°11'0 1.0
2018-Jun-20 21:00N 38°10' W 123°10'3205.4
2018-Jun-20 21:00N 38°12' W 123°12'4 7.7 310 / 181018.0 11.910.612.3
2018-Jun-20 20:30N 38°10' W 123°16'611.7
2018-Jun-20 20:00N 38°10' W 123°23'3159.2
2018-Jun-20 20:00N 38°12' W 123°24'5 9.6 310 / 241018.4 12.911.513.5
2018-Jun-20 19:30N 38°09' W 123°29'0 0.7
2018-Jun-20 19:00N 38°09' W 123°29'3215.1
2018-Jun-20 19:00N 38°12' W 123°30'3 5.4 310 / 191018.2 12.811.913.6
2018-Jun-20 18:30N 38°09' W 123°30'5 9.5
2018-Jun-20 18:00N 38°10' W 123°36'2146.7
2018-Jun-20 18:00N 38°12' W 123°36'510.2 310 / 251018.0 12.612.413.9
2018-Jun-20 17:30N 38°10' W 123°42'1 1.3
2018-Jun-20 17:00N 38°10' W 123°42'2164.3
2018-Jun-20 17:00N 38°12' W 123°42'2 4.9 330 / 161017.8 12.512.513.8
2018-Jun-20 16:30N 38°10' W 123°42'2 3.6
2018-Jun-20 16:00N 38°10' W 123°44'4233.3
2018-Jun-20 16:00N 38°12' W 123°48'3 6.4 320 / 211018.0 12.4 13.7
2018-Jun-20 15:30N 38°10' W 123°51'1 2.7
2018-Jun-20 15:00N 38°10' W 123°52'3163.4
2018-Jun-20 15:00N 38°12' W 123°54'2 4.4 330 / 171017.3 12.7 13.7
2018-Jun-20 14:30N 38°10' W 123°54'611.4
2018-Jun-20 14:00N 38°09' W 124°01'5281.2
2018-Jun-20 14:00N 38°12' W 124°06'3 7.0 330 / 201017.3 12.6 14.0
2018-Jun-20 13:31N 38°09' W 124°08'4 8.3
2018-Jun-20 13:00N 38°06' W 124°12'3119.7 310 / 151017.1 12.6 13.9
2018-Jun-20 12:58N 38°08' W 124°10'4 3.9
2018-Jun-20 12:00N 38°12' W 124°12'2 1.9 310 / 141017.1 12.9 14.0
2018-Jun-20 11:04N 38°10' W 124°13'454.3
2018-Jun-20 11:00N 38°12' W 124°18'213.5 310 / 181017.0 12.9 14.0
2018-Jun-20 10:49N 38°10' W 124°16'3 9.5
2018-Jun-20 10:30N 38°10' W 124°20'5 9.4
2018-Jun-20 10:00N 38°09' W 124°26'4418.3
2018-Jun-20 10:00N 38°12' W 124°30'3 6.4 300 / 211017.4 12.8 14.8
2018-Jun-20 09:30N 38°09' W 124°31'5 9.1
2018-Jun-20 09:00N 38°12' W 124°36'2 5.6 290 / 161017.8 12.912.314.7
2018-Jun-20 08:39N 38°11' W 124°34'1 9.5
2018-Jun-20 08:30N 38°10' W 124°36'510.5
2018-Jun-20 08:00N 38°10' W 124°42'2323.9
2018-Jun-20 08:00N 38°12' W 124°42'5 4.7 320 / 181018.5 14.8 14.7
2018-Jun-20 07:00N 38°12' W 124°48'229.4 320 / 181018.7 12.912.114.5
2018-Jun-20 06:56N 38°11' W 124°46'410.1
2018-Jun-20 06:30N 38°10' W 124°51'510.0
2018-Jun-20 06:00N 38°08' W 124°58'3192.2
2018-Jun-20 06:00N 38°06' W 125°00'6 6.0 330 / 161019.1 13.813.314.4
2018-Jun-20 05:00N 38°12' W 125°00'2 8.0 310 / 71018.8 13.313.314.4
2018-Jun-20 04:47N 38°11' W 125°01'0 1.1
2018-Jun-20 04:24N 38°11' W 125°02'1 2.2
2018-Jun-20 04:00N 38°10' W 125°01'2244.4
2018-Jun-20 04:00N 38°12' W 125°00'1 1.7 340 / 101018.8 13.713.714.5
2018-Jun-20 03:06N 38°11' W 125°01'0 1.6
2018-Jun-20 03:00N 38°11' W 125°01'2776.3
2018-Jun-20 03:00N 38°12' W 125°00'2 3.3 320 / 131018.7 13.513.014.5
2018-Jun-20 02:30N 38°10' W 125°00'2 3.2
2018-Jun-20 02:00N 38°12' W 125°00'3 3.9 320 / 151018.4 13.713.414.4
2018-Jun-20 01:08N 38°15' W 125°01'321.0
2018-Jun-20 01:00N 38°18' W 125°00'31317.3 310 / 141018.7 13.813.814.1
2018-Jun-20 00:59N 38°16' W 125°01'1 2.4
2018-Jun-20 00:30N 38°15' W 125°00'1 2.3
2018-Jun-20 00:00N 38°14' W 124°59'2157.3
2018-Jun-20 00:00N 38°12' W 125°00'2 3.6 320 / 71018.8 13.313.314.5
2018-Jun-19 23:30N 38°13' W 124°58'1 2.0
2018-Jun-19 23:00N 38°12' W 124°57'2156.0
2018-Jun-19 23:00N 38°12' W 125°00'3 5.4 300 / 111019.4 13.0 14.5
2018-Jun-19 22:29N 38°11' W 124°57'2 4.5
2018-Jun-19 22:00N 38°12' W 124°54'2642.8 320 / 131019.3 12.511.414.4
2018-Jun-19 21:59N 38°10' W 124°56'5 7.2
2018-Jun-19 21:17N 38°10' W 124°49'2 8.3
2018-Jun-19 21:00N 38°10' W 124°46'42316.2
2018-Jun-19 21:00N 38°12' W 124°42'3 6.0 310 / 121019.2 13.112.315.2
2018-Jun-19 20:30N 38°10' W 124°45'1 2.1
2018-Jun-19 20:00N 38°10' W 124°44'2179.5
2018-Jun-19 20:00N 38°12' W 124°42'2 4.7 330 / 121019.6 12.912.614.9
2018-Jun-19 19:30N 38°10' W 124°40'4 7.3
2018-Jun-19 19:00N 38°10' W 124°36'2137.1
2018-Jun-19 19:00N 38°12' W 124°36'3 6.0 340 / 131019.3 12.812.814.6
2018-Jun-19 18:30N 38°10' W 124°33'3 6.2
2018-Jun-19 18:00N 38°12' W 124°30'2 9.8 340 / 191018.9 12.612.614.5
2018-Jun-19 17:47N 38°10' W 124°29'2 8.2
2018-Jun-19 17:30N 38°10' W 124°26'3 6.5
2018-Jun-19 17:00N 38°10' W 124°22'2132.2
2018-Jun-19 17:00N 38°12' W 124°24'2 5.1 310 / 131019.2 12.412.414.0
2018-Jun-19 16:31N 38°10' W 124°22'815.8
2018-Jun-19 16:00N 38°12' W 124°12'330.1 340 / 171018.6 12.312.313.7
2018-Jun-19 15:54N 38°10' W 124°14'1 3.7
2018-Jun-19 15:30N 38°10' W 124°12'2 3.0
2018-Jun-19 15:00N 38°10' W 124°11'4566.2
2018-Jun-19 15:00N 38°12' W 124°06'3 5.5 340 / 201017.9 12.311.813.8
2018-Jun-19 14:24N 38°10' W 124°03'3 6.9
2018-Jun-19 14:00N 38°12' W 124°00'3276.6 330 / 151017.6 12.311.813.6
2018-Jun-19 13:59N 38°10' W 124°02'7 8.4
2018-Jun-19 13:07N 38°10' W 123°53'110.8
2018-Jun-19 13:00N 38°10' W 123°51'31480.0
2018-Jun-19 13:00N 38°12' W 123°48'3 6.7 330 / 181016.9 12.011.313.8
2018-Jun-19 12:30N 38°10' W 123°45'1 1.2
2018-Jun-19 12:00N 38°10' W 123°44'3257.6
2018-Jun-19 12:00N 38°12' W 123°42'2 4.3 310 / 201016.8 12.011.413.8
2018-Jun-19 11:30N 38°10' W 123°43'1 2.0
2018-Jun-19 11:00N 38°10' W 123°42'2171.6
2018-Jun-19 11:00N 38°12' W 123°42'4 7.6 310 / 191016.8 12.211.613.9
2018-Jun-19 10:30N 38°10' W 123°38'4 8.7
2018-Jun-19 10:00N 38°09' W 123°33'4281.0
2018-Jun-19 10:00N 38°12' W 123°30'3 5.1 330 / 171016.5 12.512.514.0
2018-Jun-19 09:30N 38°10' W 123°29'3 4.9
2018-Jun-19 09:00N 38°12' W 123°30'3197.8 330 / 201016.8 12.112.113.7
2018-Jun-19 08:59N 38°10' W 123°28'3 7.2
2018-Jun-19 08:30N 38°10' W 123°24'4 7.8
2018-Jun-19 08:00N 38°10' W 123°19'2150.2
2018-Jun-19 08:00N 38°12' W 123°18'3 5.1 320 / 131016.9 12.212.112.8
2018-Jun-19 07:30N 38°10' W 123°17'4 7.9
2018-Jun-19 07:00N 38°11' W 123°12'189.1
2018-Jun-19 07:00N 38°12' W 123°12'2 4.5 330 / 141017.2 11.611.610.3
2018-Jun-19 06:30N 38°10' W 123°10'1 2.8
2018-Jun-19 06:00N 38°09' W 123°09'3263.3
2018-Jun-19 06:00N 38°12' W 123°06'3 5.6 320 / 181017.3 11.611.612.5
2018-Jun-19 05:30N 38°10' W 123°04'3 5.9
2018-Jun-19 05:00N 38°10' W 122°60'2156.4
2018-Jun-19 05:00N 38°12' W 123°00'2 4.7 310 / 131017.4 12.1 12.7
2018-Jun-19 04:30N 38°10' W 122°60'0 0.8
2018-Jun-19 04:00N 38°10' W 122°60'2270.5
2018-Jun-19 04:00N 38°12' W 123°00'2 3.5 300 / 81017.6 12.112.112.8
2018-Jun-19 03:30N 38°11' W 123°01'1 1.7
2018-Jun-19 03:01N 38°10' W 123°00'2111.4
2018-Jun-19 03:00N 38°12' W 123°00'4 9.0 300 / 111017.5 12.312.112.7
2018-Jun-19 02:30N 38°10' W 123°05'4 8.3
2018-Jun-19 02:00N 38°10' W 123°10'3153.6
2018-Jun-19 02:00N 38°12' W 123°12'3 5.8 320 / 131017.3 12.412.211.6
2018-Jun-19 01:29N 38°10' W 123°14'4 9.0
2018-Jun-19 01:00N 38°10' W 123°20'4530.4
2018-Jun-19 01:00N 38°12' W 123°24'2 5.0 310 / 41018.0 13.713.214.0
2018-Jun-19 00:30N 38°10' W 123°22'4 7.9
2018-Jun-19 00:00N 38°10' W 123°27'3218.3
2018-Jun-19 00:00N 38°12' W 123°30'2 3.1 270 / 61018.2 13.012.814.5
2018-Jun-18 23:30N 38°11' W 123°28'510.3
2018-Jun-18 23:00N 38°16' W 123°28'2172.0
2018-Jun-18 23:00N 38°18' W 123°30'0 0.6 310 / 31018.4 13.212.314.3
2018-Jun-18 22:30N 38°18' W 123°30'4 7.5
2018-Jun-18 22:00N 38°18' W 123°35'1579.9
2018-Jun-18 22:00N 38°18' W 123°36'4 8.3 330 / 31018.8 12.912.414.6
2018-Jun-18 21:30N 38°18' W 123°41'1 1.9
2018-Jun-18 21:00N 38°18' W 123°42'142.3
2018-Jun-18 21:00N 38°18' W 123°42'3 6.7 170 / 31019.1 13.213.014.3
2018-Jun-18 20:30N 38°21' W 123°43'5 9.0
2018-Jun-18 20:00N 38°24' W 123°48'317.0 120 / 31018.7 12.612.414.4
2018-Jun-18 19:50N 38°27' W 123°48'1012.3
2018-Jun-18 19:00N 38°36' W 123°54'8 7.6 090 / 51019.0 12.412.414.4
2018-Jun-18 18:00N 38°42' W 124°00'1312.9 080 / 71019.2 12.312.313.5
2018-Jun-18 17:00N 38°54' W 124°06'8 7.6 100 / 41019.0 12.1 13.4
2018-Jun-18 16:00N 39°00' W 124°12'8 7.6 200 / 21018.6 12.012.011.0
2018-Jun-18 15:00N 39°06' W 124°18'5 4.7 200 / 21018.2 11.111.110.8
2018-Jun-18 14:00N 39°06' W 124°24'1414.0 080 / 31017.4 11.511.512.3
2018-Jun-18 13:00N 39°06' W 124°42'5 4.7 100 / 31016.8 11.411.213.2
2018-Jun-18 12:00N 39°06' W 124°36'5 4.7 060 / 51017.1 11.511.313.2
2018-Jun-18 11:00N 39°06' W 124°30'9 9.3 160 / 71016.6 11.411.113.6
2018-Jun-18 10:00N 39°06' W 124°18'9 9.3 150 / 11016.6 11.511.511.0
2018-Jun-18 09:00N 39°06' W 124°06'8 7.6 060 / 241017.2 5.4 11.911.910.7
2018-Jun-18 08:00N 39°12' W 124°00'6 6.0 140 / 91015.9 12.712.711.8
2018-Jun-18 07:00N 39°06' W 124°00'9 9.3 170 / 51015.8 12.812.812.8
2018-Jun-18 06:00N 39°06' W 123°48'0 0.0 210 / 11016.2 12.912.312.5
2018-Jun-18 05:00N 39°06' W 123°48'0 0.0 090 / 51015.7 12.912.411.8
2018-Jun-18 04:00N 39°06' W 123°48'6 6.0 200 / 31015.6 12.711.811.9
2018-Jun-18 03:00N 39°12' W 123°48'6 6.0 170 / 41015.2 14.013.212.0
2018-Jun-18 02:00N 39°06' W 123°48'5 4.7 210 / 141014.4 13.112.212.0
2018-Jun-18 01:00N 39°06' W 123°54'5 4.7 190 / 141014.2 13.411.613.0
2018-Jun-18 00:00N 39°06' W 124°00'8 7.6 180 / 161013.8 14.013.212.3
2018-Jun-17 23:00N 39°00' W 123°54'1312.9 180 / 171013.6 13.112.312.8
2018-Jun-17 22:00N 38°48' W 123°48'2 2.7 180 / 181013.8 13.712.311.7
2018-Jun-17 21:13N 38°47' W 123°46'211.2
2018-Jun-17 21:00N 38°44' W 123°45'3453.9
2018-Jun-17 21:00N 38°42' W 123°42'3 5.3 160 / 121014.0 15.4 13.2
2018-Jun-17 20:30N 38°39' W 123°42'510.9
2018-Jun-17 20:00N 38°34' W 123°40'5409.9
2018-Jun-17 20:00N 38°30' W 123°36'1 2.4 150 / 111013.8 13.5 12.8
2018-Jun-17 19:30N 38°29' W 123°37'510.7
2018-Jun-17 19:00N 38°24' W 123°35'162.7
2018-Jun-17 19:00N 38°24' W 123°36'510.7 130 / 111013.0 12.9 13.2
2018-Jun-17 18:30N 38°19' W 123°33'510.5
2018-Jun-17 18:00N 38°15' W 123°30'5728.6
2018-Jun-17 18:00N 38°12' W 123°24'4 7.4 130 / 121013.010.8 11.711.712.9
2018-Jun-17 17:30N 38°10' W 123°28'510.2
2018-Jun-17 17:00N 38°05' W 123°25'195.5
2018-Jun-17 17:00N 38°06' W 123°24'611.6 120 / 91012.6 11.911.911.8
2018-Jun-17 16:30N 38°00' W 123°23'5 9.9
2018-Jun-17 16:00N 37°56' W 123°21'3224.2
2018-Jun-17 16:00N 37°54' W 123°18'1 2.9 140 / 101011.6 11.411.410.5
2018-Jun-17 15:30N 37°53' W 123°19'4 7.6
2018-Jun-17 15:00N 37°51' W 123°16'4254.3
2018-Jun-17 15:00N 37°48' W 123°12'1 2.9 140 / 61011.6 11.911.711.3
2018-Jun-17 14:30N 37°47' W 123°12'3 6.5
2018-Jun-17 14:00N 37°44' W 123°09'4221.0
2018-Jun-17 14:00N 37°42' W 123°12'1111.2 170 / 71010.6 12.212.211.3
2018-Jun-17 13:00N 37°48' W 123°24'1111.2 250 / 21009.7 12.6 11.8
2018-Jun-17 12:00N 37°54' W 123°36'219.2 270 / 81009.0 12.912.912.0
2018-Jun-17 11:53N 37°53' W 123°34'1 1.5
2018-Jun-17 11:30N 37°53' W 123°33'1 1.9
2018-Jun-17 11:00N 37°53' W 123°32'2160.9
2018-Jun-17 11:00N 37°54' W 123°30'1 1.7 320 / 121008.9 12.912.911.5
2018-Jun-17 10:31N 37°53' W 123°30'2 4.1
2018-Jun-17 10:00N 37°53' W 123°27'3183.2
2018-Jun-17 10:00N 37°54' W 123°24'2 3.5 310 / 101008.5 12.512.510.6
2018-Jun-17 09:30N 37°53' W 123°22'2 4.3
2018-Jun-17 09:00N 37°53' W 123°20'2120.5
2018-Jun-17 09:00N 37°54' W 123°18'2 4.6 270 / 131008.8 12.111.610.3
2018-Jun-17 08:30N 37°52' W 123°18'4 7.5
2018-Jun-17 08:00N 37°49' W 123°15'3159.1
2018-Jun-17 08:00N 37°48' W 123°12'2 4.6 280 / 131008.4 12.211.711.3
2018-Jun-17 07:30N 37°46' W 123°12'2 4.4
2018-Jun-17 07:00N 37°44' W 123°10'3167.5
2018-Jun-17 07:00N 37°42' W 123°12'3 6.4 280 / 121008.7 12.512.011.9
2018-Jun-17 06:30N 37°43' W 123°09'3 6.5
2018-Jun-17 06:00N 37°41' W 123°06'164.3
2018-Jun-17 06:00N 37°42' W 123°06'3 6.9 250 / 121008.5 12.812.312.6
2018-Jun-17 05:30N 37°39' W 123°04'1 1.9
2018-Jun-17 05:00N 37°39' W 123°03'3209.9
2018-Jun-17 05:00N 37°36' W 123°00'4 8.2 270 / 141008.4 13.012.112.0
2018-Jun-17 04:30N 37°39' W 123°03'0 0.4
2018-Jun-17 04:00N 37°39' W 123°03'3318.7
2018-Jun-17 04:00N 37°42' W 123°06'4 8.2 270 / 131008.0 12.711.412.6
2018-Jun-17 03:30N 37°39' W 123°03'4 7.8
2018-Jun-17 03:00N 37°42' W 123°06'346.8 300 / 121008.4 14.411.212.4
2018-Jun-17 02:56N 37°39' W 123°07'9 9.8
2018-Jun-17 02:00N 37°42' W 123°18'7 8.1 310 / 161008.2 14.412.112.3
2018-Jun-17 01:10N 37°46' W 123°25'0 2.1
2018-Jun-17 01:00N 37°46' W 123°24'2203.9
2018-Jun-17 01:00N 37°48' W 123°24'3 5.4 330 / 191007.8 13.012.211.1
2018-Jun-17 00:30N 37°45' W 123°24'3 6.6
2018-Jun-17 00:00N 37°42' W 123°24'135.1 310 / 191007.4 12.612.612.0
2018-Jun-16 23:58N 37°41' W 123°24'1111.3
2018-Jun-16 23:00N 37°30' W 123°24'1 1.4 320 / 161008.2 12.7 13.6
2018-Jun-16 22:04N 37°31' W 123°23'455.9
2018-Jun-16 22:00N 37°30' W 123°18'349.7 360 / 201008.1 12.6 12.3
2018-Jun-16 21:56N 37°31' W 123°22'5 9.8
2018-Jun-16 21:23N 37°31' W 123°15'2 6.0
2018-Jun-16 21:00N 37°31' W 123°12'164.0
2018-Jun-16 21:00N 37°30' W 123°12'1 2.0 330 / 101008.4 11.211.211.8
2018-Jun-16 20:30N 37°31' W 123°11'510.6
2018-Jun-16 20:00N 37°31' W 123°05'4238.9
2018-Jun-16 20:00N 37°30' W 123°00'1 2.4 180 / 91008.1 10.7 11.6
2018-Jun-16 19:30N 37°31' W 122°59'1 2.0
2018-Jun-16 19:00N 37°30' W 122°58'3198.8
2018-Jun-16 19:00N 37°30' W 122°54'5 8.9 190 / 141007.8 10.910.711.4
2018-Jun-16 18:28N 37°25' W 122°53'510.9
2018-Jun-16 18:00N 37°22' W 122°49'4278.8
2018-Jun-16 18:00N 37°18' W 122°48'3 6.4 170 / 111008.0 11.611.611.3
2018-Jun-16 17:30N 37°18' W 122°44'5 9.5
2018-Jun-16 17:00N 37°16' W 122°39'3158.7
2018-Jun-16 17:00N 37°18' W 122°36'4 8.0 150 / 131008.0 11.8 12.4
2018-Jun-16 16:28N 37°17' W 122°41'510.6
2018-Jun-16 16:00N 37°17' W 122°47'1153.9
2018-Jun-16 16:00N 37°18' W 122°48'2 3.3 190 / 111007.7 11.5 11.3
2018-Jun-16 15:30N 37°17' W 122°49'4 7.8
2018-Jun-16 15:00N 37°16' W 122°54'2112.5
2018-Jun-16 15:00N 37°18' W 122°54'4 5.7 290 / 61007.2 11.7 11.8
2018-Jun-16 14:14N 37°16' W 122°59'2 7.6
2018-Jun-16 14:00N 37°18' W 123°00'242.3 290 / 101006.7 11.8 12.0
2018-Jun-16 13:57N 37°16' W 122°59'510.6
2018-Jun-16 13:29N 37°17' W 123°05'611.5
2018-Jun-16 13:00N 37°18' W 123°12'1 4.1 310 / 181006.2 12.0 13.6
2018-Jun-16 12:44N 37°17' W 123°11'0 0.8
2018-Jun-16 12:17N 37°17' W 123°11'1 3.3
2018-Jun-16 12:00N 37°18' W 123°12'227.0 330 / 151006.2 12.4 13.6
2018-Jun-16 11:56N 37°17' W 123°10'1 2.2
2018-Jun-16 11:24N 37°17' W 123°09'3 6.3
2018-Jun-16 11:00N 37°18' W 123°06'152.5 310 / 151006.0 12.6 13.5
2018-Jun-16 10:58N 37°17' W 123°07'3 6.1
2018-Jun-16 10:30N 37°17' W 123°04'3 6.0
2018-Jun-16 10:00N 37°18' W 123°00'11099.8 290 / 81006.3 12.3 12.0
2018-Jun-16 09:59N 37°17' W 122°60'2 2.4
2018-Jun-16 09:14N 37°17' W 122°58'312.9
2018-Jun-16 09:00N 37°18' W 122°54'223.2 260 / 91006.6 12.3 11.5
2018-Jun-16 08:54N 37°17' W 122°56'4 9.0
2018-Jun-16 08:30N 37°17' W 122°51'3 5.5
2018-Jun-16 08:00N 37°18' W 122°48'257.7 280 / 71007.3 12.4 11.4
2018-Jun-16 07:58N 37°17' W 122°49'1 2.8
2018-Jun-16 07:29N 37°17' W 122°48'4 7.7
2018-Jun-16 07:00N 37°17' W 122°43'175.4
2018-Jun-16 07:00N 37°18' W 122°42'2 3.2 250 / 61007.8 12.312.312.0
2018-Jun-16 06:30N 37°17' W 122°41'1 2.7
2018-Jun-16 06:00N 37°16' W 122°39'3181.4
2018-Jun-16 06:00N 37°18' W 122°36'2 3.8 250 / 71008.2 12.7 12.3
2018-Jun-16 05:30N 37°16' W 122°35'1 1.9
2018-Jun-16 05:00N 37°16' W 122°34'2154.9
2018-Jun-16 05:00N 37°18' W 122°36'3 6.8 280 / 71008.1 12.9 12.4
2018-Jun-16 04:30N 37°16' W 122°33'2 4.3
2018-Jun-16 04:00N 37°17' W 122°35'177.7
2018-Jun-16 04:00N 37°18' W 122°36'2 3.8 250 / 51008.6 12.8 12.4
2018-Jun-16 03:30N 37°17' W 122°34'1 2.7
2018-Jun-16 03:00N 37°16' W 122°33'5283.6
2018-Jun-16 03:00N 37°12' W 122°30'0 0.7 250 / 61008.9 12.6 12.3
2018-Jun-16 02:30N 37°12' W 122°30'2 4.2
2018-Jun-16 02:00N 37°10' W 122°29'2675.5
2018-Jun-16 02:00N 37°12' W 122°30'4 7.2 250 / 61009.2 12.5 12.2
2018-Jun-16 01:28N 37°10' W 122°34'4 9.2
2018-Jun-16 01:00N 37°10' W 122°40'3180.2
2018-Jun-16 01:00N 37°12' W 122°42'2 4.4 260 / 91009.5 12.6 12.8
2018-Jun-16 00:30N 37°10' W 122°41'3 6.0
2018-Jun-16 00:00N 37°07' W 122°41'2114.3
2018-Jun-16 00:00N 37°06' W 122°42'510.6 290 / 101009.9 13.3 12.8
2018-Jun-15 23:30N 37°09' W 122°47'611.9
2018-Jun-15 23:00N 37°12' W 122°54'2492.7 290 / 91009.9 12.8 12.2
2018-Jun-15 22:59N 37°11' W 122°53'0 0.6
2018-Jun-15 22:25N 37°10' W 122°53'2 4.5
2018-Jun-15 22:00N 37°09' W 122°52'4389.1
2018-Jun-15 22:00N 37°06' W 122°48'2 3.8 280 / 141010.2 12.9 12.7
2018-Jun-15 21:30N 37°04' W 122°49'5 9.7
2018-Jun-15 21:00N 37°00' W 122°47'186.5
2018-Jun-15 21:00N 37°00' W 122°48'611.1 310 / 111010.8 12.9 12.6
2018-Jun-15 20:27N 36°56' W 122°43'510.3
2018-Jun-15 20:00N 36°52' W 122°40'5355.9
2018-Jun-15 20:00N 36°48' W 122°36'1 2.8 320 / 71010.8 12.7 12.9
2018-Jun-15 19:30N 36°47' W 122°37'714.6
2018-Jun-15 19:00N 36°42' W 122°30'31323.1 320 / 91010.9 12.5 14.3
2018-Jun-15 18:59N 36°42' W 122°34'510.6
2018-Jun-15 18:30N 36°38' W 122°31'510.5
2018-Jun-15 18:00N 36°33' W 122°28'41487.7
2018-Jun-15 18:00N 36°30' W 122°24'2 3.7 320 / 111010.6 12.6 14.1
2018-Jun-15 17:30N 36°28' W 122°25'1711.4
2018-Jun-15 16:00N 36°12' W 122°18'8 7.7 320 / 111010.7 12.4 12.3
2018-Jun-15 15:00N 36°06' W 122°12'1515.4 300 / 91010.6 12.3 12.7
2018-Jun-15 14:00N 35°54' W 122°00'8 7.7 310 / 111010.1 12.3 12.0
2018-Jun-15 13:00N 35°48' W 121°54'6 6.0 320 / 91009.7 12.4 13.6
2018-Jun-15 12:00N 35°42' W 121°54'0 0.0 340 / 121009.6 12.7 14.2
2018-Jun-15 11:00N 35°42' W 121°54'10 9.7 340 / 151009.3 13.0 14.2
2018-Jun-15 10:00N 35°42' W 121°42'0 0.0 320 / 81009.7 12.8 14.3
2018-Jun-15 09:00N 35°42' W 121°42'8 9.1 330 / 141009.6 13.1 14.1
2018-Jun-15 08:04N 35°43' W 121°32'224.3
2018-Jun-15 08:00N 35°42' W 121°30'286.4 320 / 111009.8 12.5 11.2
2018-Jun-15 07:58N 35°43' W 121°32'2 1.7
2018-Jun-15 07:00N 35°42' W 121°30'5 4.9 330 / 81010.3 11.0
2018-Jun-15 06:00N 35°42' W 121°24'0 0.0 300 / 111010.5 11.0
2018-Jun-15 05:00N 35°42' W 121°24'5 4.9 310 / 61010.2 10.8
2018-Jun-15 04:00N 35°42' W 121°18'216.1 320 / 101009.9 11.5 11.0
2018-Jun-15 03:50N 35°40' W 121°20'1 1.8
2018-Jun-15 03:19N 35°41' W 121°20'310.2
2018-Jun-15 03:00N 35°42' W 121°24'2 5.0 310 / 131009.7 11.8 11.0
2018-Jun-15 02:38N 35°42' W 121°22'1 9.2
2018-Jun-15 02:29N 35°42' W 121°24'0 0.8
2018-Jun-15 02:00N 35°42' W 121°24'211.6 300 / 151010.0 12.3 11.2
2018-Jun-15 01:49N 35°42' W 121°26'3 3.5
2018-Jun-15 01:00N 35°42' W 121°30'1 7.9 320 / 141010.2 13.0 11.8
2018-Jun-15 00:55N 35°42' W 121°31'7 7.8
2018-Jun-15 00:00N 35°48' W 121°36'6 6.0 320 / 141010.9 12.9 12.0
2018-Jun-14 23:00N 35°54' W 121°36'811.5 310 / 141011.9 12.8 12.6
2018-Jun-14 22:17N 35°52' W 121°46'2 8.5
2018-Jun-14 22:00N 35°54' W 121°48'1212.0 310 / 151012.1 13.3 14.2
2018-Jun-14 21:00N 35°42' W 121°48'6 6.0 300 / 211011.9 13.3 14.2
2018-Jun-14 20:00N 35°36' W 121°48'1 7.4 300 / 221012.0 13.3 13.6
2018-Jun-14 19:51N 35°35' W 121°47'5 6.0
2018-Jun-14 19:00N 35°30' W 121°48'10 9.8 310 / 211012.3 13.0 12.5
2018-Jun-14 18:00N 35°30' W 121°36'5 4.9 340 / 201011.6 12.2 11.1
2018-Jun-14 17:00N 35°30' W 121°30'5 4.9 340 / 271011.3 11.6 11.1
2018-Jun-14 16:00N 35°30' W 121°24'3 3.4 330 / 111011.4 10.3 10.8
2018-Jun-14 15:14N 35°28' W 121°22'210.1
2018-Jun-14 15:00N 35°26' W 121°22'2174.0
2018-Jun-14 15:00N 35°24' W 121°24'4 7.4 320 / 221010.4 11.2 11.7
2018-Jun-14 14:30N 35°21' W 121°22'5 9.8
2018-Jun-14 14:00N 35°16' W 121°23'4291.1
2018-Jun-14 14:00N 35°12' W 121°24'3 5.7 320 / 191009.6 11.7 12.3
2018-Jun-14 13:30N 35°12' W 121°21'5 9.5
2018-Jun-14 13:00N 35°09' W 121°16'4269.1
2018-Jun-14 13:00N 35°06' W 121°12'1 2.2 340 / 201009.6 11.2 12.3
2018-Jun-14 12:31N 35°06' W 121°11'5 9.7
2018-Jun-14 12:01N 35°04' W 121°06'2111.2
2018-Jun-14 12:00N 35°06' W 121°06'612.2 350 / 161009.5 11.2 12.5
2018-Jun-14 11:30N 35°02' W 121°00'1 2.1
2018-Jun-14 11:00N 35°01' W 120°59'1136.4
2018-Jun-14 11:00N 35°00' W 121°00'1 2.9 330 / 131010.1 11.2 12.8
2018-Jun-14 10:30N 35°01' W 120°59'1 2.3
2018-Jun-14 10:00N 35°00' W 120°58'2107.4
2018-Jun-14 10:00N 35°00' W 121°00'2 3.3 010 / 111010.8 11.2 12.7
2018-Jun-14 09:31N 35°01' W 120°58'0 0.7
2018-Jun-14 09:00N 35°01' W 120°58'192.3
2018-Jun-14 09:00N 35°00' W 121°00'3 5.4 320 / 121010.6 11.4 12.6
2018-Jun-14 08:30N 34°60' W 120°57'2 3.4
2018-Jun-14 08:00N 34°59' W 120°55'165.4
2018-Jun-14 08:00N 35°00' W 120°54'1 2.2 360 / 201010.6 11.2 12.0
2018-Jun-14 07:31N 34°60' W 120°53'4 7.8
2018-Jun-14 07:00N 35°00' W 120°48'3 4.1 340 / 151010.5 10.7 11.5
2018-Jun-14 06:20N 35°01' W 120°45'1 2.2
2018-Jun-14 06:00N 35°01' W 120°44'2107.5
2018-Jun-14 06:00N 35°00' W 120°42'2 3.1 330 / 81010.6 10.4 12.3
2018-Jun-14 05:30N 35°00' W 120°44'1 1.2
2018-Jun-14 05:00N 35°01' W 120°44'2154.3
2018-Jun-14 05:00N 35°00' W 120°42'1 2.4 310 / 91010.5 11.0 12.6
2018-Jun-14 04:30N 34°60' W 120°43'2 4.7
2018-Jun-14 04:00N 35°00' W 120°46'1173.0
2018-Jun-14 04:00N 35°00' W 120°48'5 4.9 320 / 91009.9 11.9 12.3
2018-Jun-14 03:00N 35°00' W 120°42'2 4.8 290 / 51010.0 12.5 12.6
2018-Jun-14 02:40N 34°60' W 120°44'0 1.3
2018-Jun-14 02:22N 34°60' W 120°44'2 5.5
2018-Jun-14 02:00N 34°60' W 120°46'1671.4
2018-Jun-14 02:00N 35°00' W 120°48'1 2.8 300 / 111009.8 13.0 12.7
2018-Jun-14 01:27N 35°00' W 120°46'1 3.2
2018-Jun-14 01:00N 35°00' W 120°48'3 5.6 270 / 71010.1 13.1 12.8
2018-Jun-14 00:28N 35°00' W 120°44'3 6.9
2018-Jun-14 00:01N 34°57' W 120°44'4216.0
2018-Jun-14 00:00N 34°54' W 120°42'2 4.5 260 / 71010.8 13.1 13.1
2018-Jun-13 23:29N 34°53' W 120°44'1 3.1
2018-Jun-13 23:00N 34°52' W 120°46'3174.1
2018-Jun-13 23:00N 34°54' W 120°48'4 7.5 300 / 71011.4 12.9 12.3
2018-Jun-13 22:30N 34°52' W 120°52'2 3.1
2018-Jun-13 22:00N 34°52' W 120°54'2153.1
2018-Jun-13 22:00N 34°54' W 120°54'3 7.2 300 / 121011.9 12.9 12.7
2018-Jun-13 21:31N 34°52' W 120°57'5 9.6
2018-Jun-13 21:00N 34°52' W 121°03'3212.0
2018-Jun-13 21:00N 34°54' W 121°00'3 6.6 300 / 101012.1 13.1 12.5
2018-Jun-13 20:30N 34°52' W 121°03'3 5.8
2018-Jun-13 20:01N 34°52' W 121°06'2129.1
2018-Jun-13 20:00N 34°54' W 121°06'611.9 310 / 141012.4 13.1 12.9
2018-Jun-13 19:31N 34°52' W 121°12'0 0.7
2018-Jun-13 19:00N 34°52' W 121°13'2146.3
2018-Jun-13 19:00N 34°54' W 121°12'1 1.1 340 / 121012.3 13.1 13.1
2018-Jun-13 18:30N 34°54' W 121°13'510.7
2018-Jun-13 18:00N 34°60' W 121°13'142.4
2018-Jun-13 18:00N 35°00' W 121°12'510.5 320 / 91011.9 12.8 12.6
2018-Jun-13 17:30N 35°05' W 121°13'2 4.3
2018-Jun-13 17:00N 35°07' W 121°13'1174.6
2018-Jun-13 17:00N 35°06' W 121°12'2 3.9 340 / 71011.2 11.6 12.0
2018-Jun-13 16:30N 35°07' W 121°10'5 9.7
2018-Jun-13 16:00N 35°07' W 121°04'1 2.0
2018-Jun-13 15:31N 35°07' W 121°03'3 5.6
2018-Jun-13 15:00N 35°05' W 121°00'166.7
2018-Jun-13 15:00N 35°06' W 121°00'511.0 300 / 21010.4 10.1 12.5
2018-Jun-13 14:30N 35°02' W 120°56'3 6.1
2018-Jun-13 14:00N 35°00' W 120°53'162.7
2018-Jun-13 14:00N 35°00' W 120°54'2 4.3 120 / 41009.9 10.4 12.0
2018-Jun-13 13:30N 34°60' W 120°57'2 3.2
2018-Jun-13 13:01N 34°60' W 120°58'175.2
2018-Jun-13 13:00N 35°00' W 121°00'1 2.3 080 / 31009.4 11.1 12.4
2018-Jun-13 12:30N 34°59' W 121°01'5 9.6
2018-Jun-13 12:00N 35°01' W 121°06'187.4
2018-Jun-13 12:00N 35°00' W 121°06'2 4.4 310 / 211009.1 11.3 12.4
2018-Jun-13 11:30N 35°01' W 121°08'0 0.5
2018-Jun-13 11:00N 35°01' W 121°08'2248.3
2018-Jun-13 11:00N 35°00' W 121°06'1 0.9 330 / 91009.2 12.2 12.4
2018-Jun-13 10:24N 34°60' W 121°07'2 5.2
2018-Jun-13 10:00N 35°00' W 121°04'3211.2
2018-Jun-13 10:00N 35°00' W 121°00'2 4.3 360 / 111009.2 11.4 12.6
2018-Jun-13 09:30N 35°02' W 120°60'2 4.1
2018-Jun-13 09:00N 35°00' W 121°00'2192.6 080 / 21009.5 10.4 12.6
2018-Jun-13 08:59N 35°01' W 120°58'2 3.1
2018-Jun-13 08:30N 35°01' W 120°56'2 3.5
2018-Jun-13 08:00N 35°01' W 120°54'162.7
2018-Jun-13 08:00N 35°00' W 120°54'2 3.2 010 / 31010.1 10.3 12.4
2018-Jun-13 07:20N 35°01' W 120°52'2 6.7
2018-Jun-13 07:01N 35°02' W 120°49'2112.7
2018-Jun-13 07:00N 35°00' W 120°48'0 0.8 060 / 31010.1 9.5 11.3
2018-Jun-13 06:30N 35°00' W 120°48'0 0.8
2018-Jun-13 06:00N 35°00' W 120°48'1121.1 330 / 41010.4 10.0 11.8
2018-Jun-13 05:59N 34°60' W 120°47'2 3.5
2018-Jun-13 05:20N 35°00' W 120°44'1 2.2
2018-Jun-13 05:00N 34°60' W 120°43'182.3
2018-Jun-13 05:00N 35°00' W 120°42'1 1.9 280 / 61010.4 10.1 11.2
2018-Jun-13 04:26N 34°60' W 120°43'2 5.4
2018-Jun-13 04:00N 34°60' W 120°46'2119.2
2018-Jun-13 04:00N 35°00' W 120°48'5 4.9 310 / 111010.5 10.6 11.8
2018-Jun-13 03:00N 35°00' W 120°42'2 7.0 280 / 81010.2 10.7 11.8
2018-Jun-13 02:46N 35°00' W 120°44'3 8.9
2018-Jun-13 02:28N 35°01' W 120°47'4 9.5
2018-Jun-13 02:00N 35°05' W 120°50'3213.8
2018-Jun-13 02:00N 35°06' W 120°54'1 2.5 320 / 141009.9 10.8 11.5
2018-Jun-13 01:30N 35°07' W 120°54'3 5.6
2018-Jun-13 01:00N 35°07' W 120°57'3181.9
2018-Jun-13 01:00N 35°06' W 121°00'2 5.0 310 / 161010.2 11.1 12.7
2018-Jun-13 00:30N 35°07' W 121°02'1 1.6
2018-Jun-13 00:00N 35°07' W 121°03'2188.0
2018-Jun-13 00:00N 35°06' W 121°06'4 7.7 320 / 101010.5 11.9 12.8
2018-Jun-12 23:30N 35°10' W 121°06'611.9
2018-Jun-12 23:00N 35°14' W 121°12'4527.8
2018-Jun-12 23:00N 35°18' W 121°12'4 8.8 330 / 161011.0 13.1 11.3
2018-Jun-12 22:30N 35°18' W 121°17'816.4
2018-Jun-12 22:00N 35°24' W 121°24'243.1 330 / 181011.4 11.9 11.8
2018-Jun-12 21:57N 35°22' W 121°23'812.1
2018-Jun-12 21:15N 35°28' W 121°31'517.7
2018-Jun-12 21:00N 35°30' W 121°36'160.8 320 / 161011.6 14.6 11.0
2018-Jun-12 20:58N 35°30' W 121°34'1616.7
2018-Jun-12 20:00N 35°42' W 121°48'1312.9 320 / 221012.3 12.2 12.2
2018-Jun-12 19:00N 35°54' W 121°54'   330 / 191012.1 11.7 12.5
Track history (hours):
 
Tides and Currents Weather Stations Pressure Air Temp Water Temp Dewpoint Dewpoint Depression Visibility Wind Speed Wind Dir Waves Ship Positions

Oceanographic research ship Reuben Lasker (United States)

Last reported at 2018-Jun-22 18:29 UTC. Time now 2018-Jun-22 18:37 UTC.
Position N 37°48' W 122°24'.

Length 64 m; draft 6.1 m.

Type: Other ship. MMSI: 369970573.

Date/timePositionNaut miles runAvg speedWind from/ knotsBaromVisibWave heightAir tempDewpointWater temp
2018-Jun-22 18:29N 37°48' W 122°24'0 0.0
2018-Jun-22 17:59N 37°48' W 122°24'0 0.0
2018-Jun-22 17:26N 37°48' W 122°24'0 0.0
2018-Jun-22 16:59N 37°48' W 122°24'0 0.0
2018-Jun-22 16:26N 37°48' W 122°24'0 0.0
2018-Jun-22 15:59N 37°48' W 122°24'0 0.0
2018-Jun-22 15:29N 37°48' W 122°24'0 0.0
2018-Jun-22 14:59N 37°48' W 122°24'0 0.0
2018-Jun-22 14:26N 37°48' W 122°24'0 0.0
2018-Jun-22 13:56N 37°48' W 122°24'0 0.0
2018-Jun-22 13:26N 37°48' W 122°24'0 0.0
2018-Jun-22 12:56N 37°48' W 122°24'0 0.0
2018-Jun-22 12:26N 37°48' W 122°24'0 0.0
2018-Jun-22 11:50N 37°48' W 122°24'0 0.0
2018-Jun-22 11:26N 37°48' W 122°24'0 0.0
2018-Jun-22 10:56N 37°48' W 122°24'0 0.0
2018-Jun-22 10:29N 37°48' W 122°24'0 0.0
2018-Jun-22 09:56N 37°48' W 122°24'0 0.0
2018-Jun-22 09:26N 37°48' W 122°24'0 0.0
2018-Jun-22 08:56N 37°48' W 122°24'0 0.0
2018-Jun-22 08:29N 37°48' W 122°24'0 0.0
2018-Jun-22 07:56N 37°48' W 122°24'0 0.0
2018-Jun-22 07:29N 37°48' W 122°24'0 0.0
2018-Jun-22 06:59N 37°48' W 122°24'0 0.0
2018-Jun-22 06:29N 37°48' W 122°24'0 0.0
2018-Jun-22 05:59N 37°48' W 122°24'0 0.0
2018-Jun-22 05:26N 37°48' W 122°24'0 0.0
2018-Jun-22 04:56N 37°48' W 122°24'0 0.0
2018-Jun-22 04:29N 37°48' W 122°24'0 0.0
2018-Jun-22 03:59N 37°48' W 122°24'0 0.0
2018-Jun-22 03:29N 37°48' W 122°24'0 0.0
2018-Jun-22 02:59N 37°48' W 122°24'0 0.0
2018-Jun-22 02:29N 37°48' W 122°24'0 0.0
2018-Jun-22 01:59N 37°48' W 122°24'0 0.0
2018-Jun-22 01:29N 37°48' W 122°24'0 0.0
2018-Jun-22 00:56N 37°48' W 122°24'0 0.0
2018-Jun-22 00:29N 37°48' W 122°24'0 0.0
2018-Jun-21 23:59N 37°48' W 122°24'0 0.0
2018-Jun-21 23:26N 37°48' W 122°24'0 0.0
2018-Jun-21 22:59N 37°48' W 122°24'0 0.0
2018-Jun-21 22:29N 37°48' W 122°24'0 0.0
2018-Jun-21 21:56N 37°48' W 122°24'0 0.0
2018-Jun-21 21:26N 37°48' W 122°24'0 0.0
2018-Jun-21 20:59N 37°48' W 122°24'0 0.0
2018-Jun-21 20:26N 37°48' W 122°24'0 0.0
2018-Jun-21 19:59N 37°48' W 122°24'0 0.0
2018-Jun-21 19:29N 37°48' W 122°24'0 0.0
2018-Jun-21 18:59N 37°48' W 122°24'0 0.0
2018-Jun-21 18:29N 37°48' W 122°24'0 0.0
2018-Jun-21 17:59N 37°48' W 122°24'0 0.0
2018-Jun-21 17:26N 37°48' W 122°24'0 0.0
2018-Jun-21 16:56N 37°48' W 122°24'0 0.0
2018-Jun-21 16:29N 37°48' W 122°24'0 0.0
2018-Jun-21 15:59N 37°48' W 122°24'0 0.0
2018-Jun-21 15:26N 37°48' W 122°24'0 0.0
2018-Jun-21 15:00N 37°48' W 122°24'013.7
2018-Jun-21 15:00N 37°48' W 122°24'4 8.6 240 / 91016.8 11.5 15.3
2018-Jun-21 14:31N 37°49' W 122°29'713.0
2018-Jun-21 14:00N 37°46' W 122°37'5297.6
2018-Jun-21 14:00N 37°48' W 122°42'4 8.9 300 / 251016.8 10.510.513.0
2018-Jun-21 13:30N 37°44' W 122°43'510.8
2018-Jun-21 13:00N 37°39' W 122°47'3270.1
2018-Jun-21 13:00N 37°36' W 122°48'3 6.0 330 / 151016.8 14.1 13.0
2018-Jun-21 12:30N 37°39' W 122°48'3 5.8
2018-Jun-21 12:00N 37°36' W 122°49'159.7
2018-Jun-21 12:00N 37°36' W 122°48'4 8.0 310 / 261016.0 12.0 13.0
2018-Jun-21 11:30N 37°33' W 122°51'4 8.2
2018-Jun-21 11:00N 37°36' W 122°54'325.2 320 / 251016.6 12.0 13.0
2018-Jun-21 10:52N 37°34' W 122°51'2 4.2
2018-Jun-21 10:30N 37°36' W 122°51'0 0.7
2018-Jun-21 10:00N 37°36' W 122°51'2171.6
2018-Jun-21 10:00N 37°36' W 122°48'2 3.4 300 / 181016.4 12.0 13.0
2018-Jun-21 09:30N 37°35' W 122°50'1 2.3
2018-Jun-21 09:00N 37°35' W 122°48'171.9
2018-Jun-21 09:00N 37°36' W 122°48'1 2.9 320 / 181016.7 12.1 13.1
2018-Jun-21 08:30N 37°35' W 122°50'1 2.1
2018-Jun-21 08:00N 37°36' W 122°50'3663.9
2018-Jun-21 08:00N 37°36' W 122°54'4 8.2 320 / 221017.0 14.6 13.0
2018-Jun-21 07:30N 37°40' W 122°54'1 2.7
2018-Jun-21 07:00N 37°41' W 122°55'168.8
2018-Jun-21 07:00N 37°42' W 122°54'1 2.7 320 / 221016.6 12.212.212.8
2018-Jun-21 06:30N 37°41' W 122°54'4 7.7
2018-Jun-21 06:00N 37°45' W 122°53'3272.0
2018-Jun-21 06:00N 37°48' W 122°54'1 2.9 310 / 231016.7 12.212.212.7
2018-Jun-21 05:30N 37°47' W 122°53'1 2.1
2018-Jun-21 05:00N 37°46' W 122°52'2191.9
2018-Jun-21 05:00N 37°48' W 122°54'1 2.5 300 / 211016.5 12.410.712.4
2018-Jun-21 04:29N 37°47' W 122°53'0 0.9
2018-Jun-21 04:00N 37°47' W 122°53'165.4
2018-Jun-21 04:00N 37°48' W 122°54'2 3.6 310 / 191016.4 12.5 12.8
2018-Jun-21 03:30N 37°47' W 122°52'1 1.7
2018-Jun-21 03:00N 37°46' W 122°51'3196.9
2018-Jun-21 03:00N 37°48' W 122°54'2 3.6 290 / 241016.5 12.6 12.5
2018-Jun-21 02:30N 37°46' W 122°55'612.0
2018-Jun-21 02:00N 37°42' W 123°00'36161.6 290 / 291016.8 12.4 11.6
2018-Jun-21 01:59N 37°45' W 123°00'4 7.4
2018-Jun-21 01:30N 37°43' W 123°04'1 1.1
2018-Jun-21 01:00N 37°44' W 123°04'2173.7
2018-Jun-21 01:00N 37°42' W 123°06'2 4.1 310 / 181017.1 12.512.011.8
2018-Jun-21 00:30N 37°43' W 123°04'1 1.2
2018-Jun-21 00:00N 37°44' W 123°04'510.2
2018-Jun-20 23:30N 37°49' W 123°05'611.8
2018-Jun-20 23:00N 37°55' W 123°08'1183.7
2018-Jun-20 23:00N 37°54' W 123°06'713.5 310 / 171017.9 13.012.212.4
2018-Jun-20 22:30N 38°00' W 123°08'611.7
2018-Jun-20 22:00N 38°06' W 123°10'2144.7
2018-Jun-20 22:00N 38°06' W 123°12'4 8.2 310 / 161018.2 12.412.412.3
2018-Jun-20 21:30N 38°10' W 123°11'0 1.0
2018-Jun-20 21:00N 38°10' W 123°10'3205.4
2018-Jun-20 21:00N 38°12' W 123°12'4 7.7 310 / 181018.0 11.910.612.3
2018-Jun-20 20:30N 38°10' W 123°16'611.7
2018-Jun-20 20:00N 38°10' W 123°23'3159.2
2018-Jun-20 20:00N 38°12' W 123°24'5 9.6 310 / 241018.4 12.911.513.5
2018-Jun-20 19:30N 38°09' W 123°29'0 0.7
2018-Jun-20 19:00N 38°09' W 123°29'3215.1
2018-Jun-20 19:00N 38°12' W 123°30'3 5.4 310 / 191018.2 12.811.913.6
2018-Jun-20 18:30N 38°09' W 123°30'5 9.5
2018-Jun-20 18:00N 38°10' W 123°36'2146.7
2018-Jun-20 18:00N 38°12' W 123°36'510.2 310 / 251018.0 12.612.413.9
2018-Jun-20 17:30N 38°10' W 123°42'1 1.3
2018-Jun-20 17:00N 38°10' W 123°42'2164.3
2018-Jun-20 17:00N 38°12' W 123°42'2 4.9 330 / 161017.8 12.512.513.8
2018-Jun-20 16:30N 38°10' W 123°42'2 3.6
2018-Jun-20 16:00N 38°10' W 123°44'4233.3
2018-Jun-20 16:00N 38°12' W 123°48'3 6.4 320 / 211018.0 12.4 13.7
2018-Jun-20 15:30N 38°10' W 123°51'1 2.7
2018-Jun-20 15:00N 38°10' W 123°52'3163.4
2018-Jun-20 15:00N 38°12' W 123°54'2 4.4 330 / 171017.3 12.7 13.7
2018-Jun-20 14:30N 38°10' W 123°54'611.4
2018-Jun-20 14:00N 38°09' W 124°01'5281.2
2018-Jun-20 14:00N 38°12' W 124°06'3 7.0 330 / 201017.3 12.6 14.0
2018-Jun-20 13:31N 38°09' W 124°08'4 8.3
2018-Jun-20 13:00N 38°06' W 124°12'3119.7 310 / 151017.1 12.6 13.9
2018-Jun-20 12:58N 38°08' W 124°10'4 3.9
2018-Jun-20 12:00N 38°12' W 124°12'2 1.9 310 / 141017.1 12.9 14.0
2018-Jun-20 11:04N 38°10' W 124°13'454.3
2018-Jun-20 11:00N 38°12' W 124°18'213.5 310 / 181017.0 12.9 14.0
2018-Jun-20 10:49N 38°10' W 124°16'3 9.5
2018-Jun-20 10:30N 38°10' W 124°20'5 9.4
2018-Jun-20 10:00N 38°09' W 124°26'4418.3
2018-Jun-20 10:00N 38°12' W 124°30'3 6.4 300 / 211017.4 12.8 14.8
2018-Jun-20 09:30N 38°09' W 124°31'5 9.1
2018-Jun-20 09:00N 38°12' W 124°36'2 5.6 290 / 161017.8 12.912.314.7
2018-Jun-20 08:39N 38°11' W 124°34'1 9.5
2018-Jun-20 08:30N 38°10' W 124°36'510.5
2018-Jun-20 08:00N 38°10' W 124°42'2323.9
2018-Jun-20 08:00N 38°12' W 124°42'5 4.7 320 / 181018.5 14.8 14.7
2018-Jun-20 07:00N 38°12' W 124°48'229.4 320 / 181018.7 12.912.114.5
2018-Jun-20 06:56N 38°11' W 124°46'410.1
2018-Jun-20 06:30N 38°10' W 124°51'510.0
2018-Jun-20 06:00N 38°08' W 124°58'3192.2
2018-Jun-20 06:00N 38°06' W 125°00'6 6.0 330 / 161019.1 13.813.314.4
2018-Jun-20 05:00N 38°12' W 125°00'2 8.0 310 / 71018.8 13.313.314.4
2018-Jun-20 04:47N 38°11' W 125°01'0 1.1
2018-Jun-20 04:24N 38°11' W 125°02'1 2.2
2018-Jun-20 04:00N 38°10' W 125°01'2244.4
2018-Jun-20 04:00N 38°12' W 125°00'1 1.7 340 / 101018.8 13.713.714.5
2018-Jun-20 03:06N 38°11' W 125°01'0 1.6
2018-Jun-20 03:00N 38°11' W 125°01'2776.3
2018-Jun-20 03:00N 38°12' W 125°00'2 3.3 320 / 131018.7 13.513.014.5
2018-Jun-20 02:30N 38°10' W 125°00'2 3.2
2018-Jun-20 02:00N 38°12' W 125°00'3 3.9 320 / 151018.4 13.713.414.4
2018-Jun-20 01:08N 38°15' W 125°01'321.0
2018-Jun-20 01:00N 38°18' W 125°00'31317.3 310 / 141018.7 13.813.814.1
2018-Jun-20 00:59N 38°16' W 125°01'1 2.4
2018-Jun-20 00:30N 38°15' W 125°00'1 2.3
2018-Jun-20 00:00N 38°14' W 124°59'2157.3
2018-Jun-20 00:00N 38°12' W 125°00'2 3.6 320 / 71018.8 13.313.314.5
2018-Jun-19 23:30N 38°13' W 124°58'1 2.0
2018-Jun-19 23:00N 38°12' W 124°57'2156.0
2018-Jun-19 23:00N 38°12' W 125°00'3 5.4 300 / 111019.4 13.0 14.5
2018-Jun-19 22:29N 38°11' W 124°57'2 4.5
2018-Jun-19 22:00N 38°12' W 124°54'2642.8 320 / 131019.3 12.511.414.4
2018-Jun-19 21:59N 38°10' W 124°56'5 7.2
2018-Jun-19 21:17N 38°10' W 124°49'2 8.3
2018-Jun-19 21:00N 38°10' W 124°46'42316.2
2018-Jun-19 21:00N 38°12' W 124°42'3 6.0 310 / 121019.2 13.112.315.2
2018-Jun-19 20:30N 38°10' W 124°45'1 2.1
2018-Jun-19 20:00N 38°10' W 124°44'2179.5
2018-Jun-19 20:00N 38°12' W 124°42'2 4.7 330 / 121019.6 12.912.614.9
2018-Jun-19 19:30N 38°10' W 124°40'4 7.3
2018-Jun-19 19:00N 38°10' W 124°36'2137.1
2018-Jun-19 19:00N 38°12' W 124°36'3 6.0 340 / 131019.3 12.812.814.6
2018-Jun-19 18:30N 38°10' W 124°33'3 6.2
2018-Jun-19 18:00N 38°12' W 124°30'2 9.8 340 / 191018.9 12.612.614.5
2018-Jun-19 17:47N 38°10' W 124°29'2 8.2
2018-Jun-19 17:30N 38°10' W 124°26'3 6.5
2018-Jun-19 17:00N 38°10' W 124°22'2132.2
2018-Jun-19 17:00N 38°12' W 124°24'2 5.1 310 / 131019.2 12.412.414.0
2018-Jun-19 16:31N 38°10' W 124°22'815.8
2018-Jun-19 16:00N 38°12' W 124°12'330.1 340 / 171018.6 12.312.313.7
2018-Jun-19 15:54N 38°10' W 124°14'1 3.7
2018-Jun-19 15:30N 38°10' W 124°12'2 3.0
2018-Jun-19 15:00N 38°10' W 124°11'4566.2
2018-Jun-19 15:00N 38°12' W 124°06'3 5.5 340 / 201017.9 12.311.813.8
2018-Jun-19 14:24N 38°10' W 124°03'3 6.9
2018-Jun-19 14:00N 38°12' W 124°00'3276.6 330 / 151017.6 12.311.813.6
2018-Jun-19 13:59N 38°10' W 124°02'7 8.4
2018-Jun-19 13:07N 38°10' W 123°53'110.8
2018-Jun-19 13:00N 38°10' W 123°51'31480.0
2018-Jun-19 13:00N 38°12' W 123°48'3 6.7 330 / 181016.9 12.011.313.8
2018-Jun-19 12:30N 38°10' W 123°45'1 1.2
2018-Jun-19 12:00N 38°10' W 123°44'3257.6
2018-Jun-19 12:00N 38°12' W 123°42'2 4.3 310 / 201016.8 12.011.413.8
2018-Jun-19 11:30N 38°10' W 123°43'1 2.0
2018-Jun-19 11:00N 38°10' W 123°42'2171.6
2018-Jun-19 11:00N 38°12' W 123°42'4 7.6 310 / 191016.8 12.211.613.9
2018-Jun-19 10:30N 38°10' W 123°38'4 8.7
2018-Jun-19 10:00N 38°09' W 123°33'4281.0
2018-Jun-19 10:00N 38°12' W 123°30'3 5.1 330 / 171016.5 12.512.514.0
2018-Jun-19 09:30N 38°10' W 123°29'3 4.9
2018-Jun-19 09:00N 38°12' W 123°30'3197.8 330 / 201016.8 12.112.113.7
2018-Jun-19 08:59N 38°10' W 123°28'3 7.2
2018-Jun-19 08:30N 38°10' W 123°24'4 7.8
2018-Jun-19 08:00N 38°10' W 123°19'2150.2
2018-Jun-19 08:00N 38°12' W 123°18'3 5.1 320 / 131016.9 12.212.112.8
2018-Jun-19 07:30N 38°10' W 123°17'4 7.9
2018-Jun-19 07:00N 38°11' W 123°12'189.1
2018-Jun-19 07:00N 38°12' W 123°12'2 4.5 330 / 141017.2 11.611.610.3
2018-Jun-19 06:30N 38°10' W 123°10'1 2.8
2018-Jun-19 06:00N 38°09' W 123°09'3263.3
2018-Jun-19 06:00N 38°12' W 123°06'3 5.6 320 / 181017.3 11.611.612.5
2018-Jun-19 05:30N 38°10' W 123°04'3 5.9
2018-Jun-19 05:00N 38°10' W 122°60'2156.4
2018-Jun-19 05:00N 38°12' W 123°00'2 4.7 310 / 131017.4 12.1 12.7
2018-Jun-19 04:30N 38°10' W 122°60'0 0.8
2018-Jun-19 04:00N 38°10' W 122°60'2270.5
2018-Jun-19 04:00N 38°12' W 123°00'2 3.5 300 / 81017.6 12.112.112.8
2018-Jun-19 03:30N 38°11' W 123°01'1 1.7
2018-Jun-19 03:01N 38°10' W 123°00'2111.4
2018-Jun-19 03:00N 38°12' W 123°00'4 9.0 300 / 111017.5 12.312.112.7
2018-Jun-19 02:30N 38°10' W 123°05'4 8.3
2018-Jun-19 02:00N 38°10' W 123°10'3153.6
2018-Jun-19 02:00N 38°12' W 123°12'3 5.8 320 / 131017.3 12.412.211.6
2018-Jun-19 01:29N 38°10' W 123°14'4 9.0
2018-Jun-19 01:00N 38°10' W 123°20'4530.4
2018-Jun-19 01:00N 38°12' W 123°24'2 5.0 310 / 41018.0 13.713.214.0
2018-Jun-19 00:30N 38°10' W 123°22'4 7.9
2018-Jun-19 00:00N 38°10' W 123°27'3218.3
2018-Jun-19 00:00N 38°12' W 123°30'2 3.1 270 / 61018.2 13.012.814.5
2018-Jun-18 23:30N 38°11' W 123°28'510.3
2018-Jun-18 23:00N 38°16' W 123°28'2172.0
2018-Jun-18 23:00N 38°18' W 123°30'0 0.6 310 / 31018.4 13.212.314.3
2018-Jun-18 22:30N 38°18' W 123°30'4 7.5
2018-Jun-18 22:00N 38°18' W 123°35'1579.9
2018-Jun-18 22:00N 38°18' W 123°36'4 8.3 330 / 31018.8 12.912.414.6
2018-Jun-18 21:30N 38°18' W 123°41'1 1.9
2018-Jun-18 21:00N 38°18' W 123°42'142.3
2018-Jun-18 21:00N 38°18' W 123°42'3 6.7 170 / 31019.1 13.213.014.3
2018-Jun-18 20:30N 38°21' W 123°43'5 9.0
2018-Jun-18 20:00N 38°24' W 123°48'317.0 120 / 31018.7 12.612.414.4
2018-Jun-18 19:50N 38°27' W 123°48'1012.3
2018-Jun-18 19:00N 38°36' W 123°54'8 7.6 090 / 51019.0 12.412.414.4
2018-Jun-18 18:00N 38°42' W 124°00'1312.9 080 / 71019.2 12.312.313.5
2018-Jun-18 17:00N 38°54' W 124°06'8 7.6 100 / 41019.0 12.1 13.4
2018-Jun-18 16:00N 39°00' W 124°12'8 7.6 200 / 21018.6 12.012.011.0
2018-Jun-18 15:00N 39°06' W 124°18'5 4.7 200 / 21018.2 11.111.110.8
2018-Jun-18 14:00N 39°06' W 124°24'1414.0 080 / 31017.4 11.511.512.3
2018-Jun-18 13:00N 39°06' W 124°42'5 4.7 100 / 31016.8 11.411.213.2
2018-Jun-18 12:00N 39°06' W 124°36'5 4.7 060 / 51017.1 11.511.313.2
2018-Jun-18 11:00N 39°06' W 124°30'9 9.3 160 / 71016.6 11.411.113.6
2018-Jun-18 10:00N 39°06' W 124°18'9 9.3 150 / 11016.6 11.511.511.0
2018-Jun-18 09:00N 39°06' W 124°06'8 7.6 060 / 241017.2 5.4 11.911.910.7
2018-Jun-18 08:00N 39°12' W 124°00'6 6.0 140 / 91015.9 12.712.711.8
2018-Jun-18 07:00N 39°06' W 124°00'9 9.3 170 / 51015.8 12.812.812.8
2018-Jun-18 06:00N 39°06' W 123°48'0 0.0 210 / 11016.2 12.912.312.5
2018-Jun-18 05:00N 39°06' W 123°48'0 0.0 090 / 51015.7 12.912.411.8
2018-Jun-18 04:00N 39°06' W 123°48'6 6.0 200 / 31015.6 12.711.811.9
2018-Jun-18 03:00N 39°12' W 123°48'6 6.0 170 / 41015.2 14.013.212.0
2018-Jun-18 02:00N 39°06' W 123°48'5 4.7 210 / 141014.4 13.112.212.0
2018-Jun-18 01:00N 39°06' W 123°54'5 4.7 190 / 141014.2 13.411.613.0
2018-Jun-18 00:00N 39°06' W 124°00'8 7.6 180 / 161013.8 14.013.212.3
2018-Jun-17 23:00N 39°00' W 123°54'1312.9 180 / 171013.6 13.112.312.8
2018-Jun-17 22:00N 38°48' W 123°48'2 2.7 180 / 181013.8 13.712.311.7
2018-Jun-17 21:13N 38°47' W 123°46'211.2
2018-Jun-17 21:00N 38°44' W 123°45'3453.9
2018-Jun-17 21:00N 38°42' W 123°42'3 5.3 160 / 121014.0 15.4 13.2
2018-Jun-17 20:30N 38°39' W 123°42'510.9
2018-Jun-17 20:00N 38°34' W 123°40'5409.9
2018-Jun-17 20:00N 38°30' W 123°36'1 2.4 150 / 111013.8 13.5 12.8
2018-Jun-17 19:30N 38°29' W 123°37'510.7
2018-Jun-17 19:00N 38°24' W 123°35'162.7
2018-Jun-17 19:00N 38°24' W 123°36'510.7 130 / 111013.0 12.9 13.2
2018-Jun-17 18:30N 38°19' W 123°33'510.5
2018-Jun-17 18:00N 38°15' W 123°30'5728.6
2018-Jun-17 18:00N 38°12' W 123°24'4 7.4 130 / 121013.010.8 11.711.712.9
2018-Jun-17 17:30N 38°10' W 123°28'510.2
2018-Jun-17 17:00N 38°05' W 123°25'195.5
2018-Jun-17 17:00N 38°06' W 123°24'611.6 120 / 91012.6 11.911.911.8
2018-Jun-17 16:30N 38°00' W 123°23'5 9.9
2018-Jun-17 16:00N 37°56' W 123°21'3224.2
2018-Jun-17 16:00N 37°54' W 123°18'1 2.9 140 / 101011.6 11.411.410.5
2018-Jun-17 15:30N 37°53' W 123°19'4 7.6
2018-Jun-17 15:00N 37°51' W 123°16'4254.3
2018-Jun-17 15:00N 37°48' W 123°12'1 2.9 140 / 61011.6 11.911.711.3
2018-Jun-17 14:30N 37°47' W 123°12'3 6.5
2018-Jun-17 14:00N 37°44' W 123°09'4221.0
2018-Jun-17 14:00N 37°42' W 123°12'1111.2 170 / 71010.6 12.212.211.3
2018-Jun-17 13:00N 37°48' W 123°24'1111.2 250 / 21009.7 12.6 11.8
2018-Jun-17 12:00N 37°54' W 123°36'219.2 270 / 81009.0 12.912.912.0
2018-Jun-17 11:53N 37°53' W 123°34'1 1.5
2018-Jun-17 11:30N 37°53' W 123°33'1 1.9
2018-Jun-17 11:00N 37°53' W 123°32'2160.9
2018-Jun-17 11:00N 37°54' W 123°30'1 1.7 320 / 121008.9 12.912.911.5
2018-Jun-17 10:31N 37°53' W 123°30'2 4.1
2018-Jun-17 10:00N 37°53' W 123°27'3183.2
2018-Jun-17 10:00N 37°54' W 123°24'2 3.5 310 / 101008.5 12.512.510.6
2018-Jun-17 09:30N 37°53' W 123°22'2 4.3
2018-Jun-17 09:00N 37°53' W 123°20'2120.5
2018-Jun-17 09:00N 37°54' W 123°18'2 4.6 270 / 131008.8 12.111.610.3
2018-Jun-17 08:30N 37°52' W 123°18'4 7.5
2018-Jun-17 08:00N 37°49' W 123°15'3159.1
2018-Jun-17 08:00N 37°48' W 123°12'2 4.6 280 / 131008.4 12.211.711.3
2018-Jun-17 07:30N 37°46' W 123°12'2 4.4
2018-Jun-17 07:00N 37°44' W 123°10'3167.5
2018-Jun-17 07:00N 37°42' W 123°12'3 6.4 280 / 121008.7 12.512.011.9
2018-Jun-17 06:30N 37°43' W 123°09'3 6.5
2018-Jun-17 06:00N 37°41' W 123°06'164.3
2018-Jun-17 06:00N 37°42' W 123°06'3 6.9 250 / 121008.5 12.812.312.6
2018-Jun-17 05:30N 37°39' W 123°04'1 1.9
2018-Jun-17 05:00N 37°39' W 123°03'3209.9
2018-Jun-17 05:00N 37°36' W 123°00'4 8.2 270 / 141008.4 13.012.112.0
2018-Jun-17 04:30N 37°39' W 123°03'0 0.4
2018-Jun-17 04:00N 37°39' W 123°03'3318.7
2018-Jun-17 04:00N 37°42' W 123°06'4 8.2 270 / 131008.0 12.711.412.6
2018-Jun-17 03:30N 37°39' W 123°03'4 7.8
2018-Jun-17 03:00N 37°42' W 123°06'346.8 300 / 121008.4 14.411.212.4
2018-Jun-17 02:56N 37°39' W 123°07'9 9.8
2018-Jun-17 02:00N 37°42' W 123°18'7 8.1 310 / 161008.2 14.412.112.3
2018-Jun-17 01:10N 37°46' W 123°25'0 2.1
2018-Jun-17 01:00N 37°46' W 123°24'2203.9
2018-Jun-17 01:00N 37°48' W 123°24'3 5.4 330 / 191007.8 13.012.211.1
2018-Jun-17 00:30N 37°45' W 123°24'3 6.6
2018-Jun-17 00:00N 37°42' W 123°24'135.1 310 / 191007.4 12.612.612.0
2018-Jun-16 23:58N 37°41' W 123°24'1111.3
2018-Jun-16 23:00N 37°30' W 123°24'1 1.4 320 / 161008.2 12.7 13.6
2018-Jun-16 22:04N 37°31' W 123°23'455.9
2018-Jun-16 22:00N 37°30' W 123°18'349.7 360 / 201008.1 12.6 12.3
2018-Jun-16 21:56N 37°31' W 123°22'5 9.8
2018-Jun-16 21:23N 37°31' W 123°15'2 6.0
2018-Jun-16 21:00N 37°31' W 123°12'164.0
2018-Jun-16 21:00N 37°30' W 123°12'1 2.0 330 / 101008.4 11.211.211.8
2018-Jun-16 20:30N 37°31' W 123°11'510.6
2018-Jun-16 20:00N 37°31' W 123°05'4238.9
2018-Jun-16 20:00N 37°30' W 123°00'1 2.4 180 / 91008.1 10.7 11.6
2018-Jun-16 19:30N 37°31' W 122°59'1 2.0
2018-Jun-16 19:00N 37°30' W 122°58'3198.8
2018-Jun-16 19:00N 37°30' W 122°54'5 8.9 190 / 141007.8 10.910.711.4
2018-Jun-16 18:28N 37°25' W 122°53'510.9
2018-Jun-16 18:00N 37°22' W 122°49'4278.8
2018-Jun-16 18:00N 37°18' W 122°48'3 6.4 170 / 111008.0 11.611.611.3
2018-Jun-16 17:30N 37°18' W 122°44'5 9.5
2018-Jun-16 17:00N 37°16' W 122°39'3158.7
2018-Jun-16 17:00N 37°18' W 122°36'4 8.0 150 / 131008.0 11.8 12.4
2018-Jun-16 16:28N 37°17' W 122°41'510.6
2018-Jun-16 16:00N 37°17' W 122°47'1153.9
2018-Jun-16 16:00N 37°18' W 122°48'2 3.3 190 / 111007.7 11.5 11.3
2018-Jun-16 15:30N 37°17' W 122°49'4 7.8
2018-Jun-16 15:00N 37°16' W 122°54'2112.5
2018-Jun-16 15:00N 37°18' W 122°54'4 5.7 290 / 61007.2 11.7 11.8
2018-Jun-16 14:14N 37°16' W 122°59'2 7.6
2018-Jun-16 14:00N 37°18' W 123°00'242.3 290 / 101006.7 11.8 12.0
2018-Jun-16 13:57N 37°16' W 122°59'510.6
2018-Jun-16 13:29N 37°17' W 123°05'611.5
2018-Jun-16 13:00N 37°18' W 123°12'1 4.1 310 / 181006.2 12.0 13.6
2018-Jun-16 12:44N 37°17' W 123°11'0 0.8
2018-Jun-16 12:17N 37°17' W 123°11'1 3.3
2018-Jun-16 12:00N 37°18' W 123°12'227.0 330 / 151006.2 12.4 13.6
2018-Jun-16 11:56N 37°17' W 123°10'1 2.2
2018-Jun-16 11:24N 37°17' W 123°09'3 6.3
2018-Jun-16 11:00N 37°18' W 123°06'152.5 310 / 151006.0 12.6 13.5
2018-Jun-16 10:58N 37°17' W 123°07'3 6.1
2018-Jun-16 10:30N 37°17' W 123°04'3 6.0
2018-Jun-16 10:00N 37°18' W 123°00'11099.8 290 / 81006.3 12.3 12.0
2018-Jun-16 09:59N 37°17' W 122°60'2 2.4
2018-Jun-16 09:14N 37°17' W 122°58'312.9
2018-Jun-16 09:00N 37°18' W 122°54'223.2 260 / 91006.6 12.3 11.5
2018-Jun-16 08:54N 37°17' W 122°56'4 9.0
2018-Jun-16 08:30N 37°17' W 122°51'3 5.5
2018-Jun-16 08:00N 37°18' W 122°48'257.7 280 / 71007.3 12.4 11.4
2018-Jun-16 07:58N 37°17' W 122°49'1 2.8
2018-Jun-16 07:29N 37°17' W 122°48'4 7.7
2018-Jun-16 07:00N 37°17' W 122°43'175.4
2018-Jun-16 07:00N 37°18' W 122°42'2 3.2 250 / 61007.8 12.312.312.0
2018-Jun-16 06:30N 37°17' W 122°41'1 2.7
2018-Jun-16 06:00N 37°16' W 122°39'3181.4
2018-Jun-16 06:00N 37°18' W 122°36'2 3.8 250 / 71008.2 12.7 12.3
2018-Jun-16 05:30N 37°16' W 122°35'1 1.9
2018-Jun-16 05:00N 37°16' W 122°34'2154.9
2018-Jun-16 05:00N 37°18' W 122°36'3 6.8 280 / 71008.1 12.9 12.4
2018-Jun-16 04:30N 37°16' W 122°33'2 4.3
2018-Jun-16 04:00N 37°17' W 122°35'177.7
2018-Jun-16 04:00N 37°18' W 122°36'2 3.8 250 / 51008.6 12.8 12.4
2018-Jun-16 03:30N 37°17' W 122°34'1 2.7
2018-Jun-16 03:00N 37°16' W 122°33'5283.6
2018-Jun-16 03:00N 37°12' W 122°30'0 0.7 250 / 61008.9 12.6 12.3
2018-Jun-16 02:30N 37°12' W 122°30'2 4.2
2018-Jun-16 02:00N 37°10' W 122°29'2675.5
2018-Jun-16 02:00N 37°12' W 122°30'4 7.2 250 / 61009.2 12.5 12.2
2018-Jun-16 01:28N 37°10' W 122°34'4 9.2
2018-Jun-16 01:00N 37°10' W 122°40'3180.2
2018-Jun-16 01:00N 37°12' W 122°42'2 4.4 260 / 91009.5 12.6 12.8
2018-Jun-16 00:30N 37°10' W 122°41'3 6.0
2018-Jun-16 00:00N 37°07' W 122°41'2114.3
2018-Jun-16 00:00N 37°06' W 122°42'510.6 290 / 101009.9 13.3 12.8
2018-Jun-15 23:30N 37°09' W 122°47'611.9
2018-Jun-15 23:00N 37°12' W 122°54'2492.7 290 / 91009.9 12.8 12.2
2018-Jun-15 22:59N 37°11' W 122°53'0 0.6
2018-Jun-15 22:25N 37°10' W 122°53'2 4.5
2018-Jun-15 22:00N 37°09' W 122°52'4389.1
2018-Jun-15 22:00N 37°06' W 122°48'2 3.8 280 / 141010.2 12.9 12.7
2018-Jun-15 21:30N 37°04' W 122°49'5 9.7
2018-Jun-15 21:00N 37°00' W 122°47'186.5
2018-Jun-15 21:00N 37°00' W 122°48'611.1 310 / 111010.8 12.9 12.6
2018-Jun-15 20:27N 36°56' W 122°43'510.3
2018-Jun-15 20:00N 36°52' W 122°40'5355.9
2018-Jun-15 20:00N 36°48' W 122°36'1 2.8 320 / 71010.8 12.7 12.9
2018-Jun-15 19:30N 36°47' W 122°37'714.6
2018-Jun-15 19:00N 36°42' W 122°30'31323.1 320 / 91010.9 12.5 14.3
2018-Jun-15 18:59N 36°42' W 122°34'510.6
2018-Jun-15 18:30N 36°38' W 122°31'510.5
2018-Jun-15 18:00N 36°33' W 122°28'41487.7
2018-Jun-15 18:00N 36°30' W 122°24'2 3.7 320 / 111010.6 12.6 14.1
2018-Jun-15 17:30N 36°28' W 122°25'1711.4
2018-Jun-15 16:00N 36°12' W 122°18'8 7.7 320 / 111010.7 12.4 12.3
2018-Jun-15 15:00N 36°06' W 122°12'1515.4 300 / 91010.6 12.3 12.7
2018-Jun-15 14:00N 35°54' W 122°00'8 7.7 310 / 111010.1 12.3 12.0
2018-Jun-15 13:00N 35°48' W 121°54'6 6.0 320 / 91009.7 12.4 13.6
2018-Jun-15 12:00N 35°42' W 121°54'0 0.0 340 / 121009.6 12.7 14.2
2018-Jun-15 11:00N 35°42' W 121°54'10 9.7 340 / 151009.3 13.0 14.2
2018-Jun-15 10:00N 35°42' W 121°42'0 0.0 320 / 81009.7 12.8 14.3
2018-Jun-15 09:00N 35°42' W 121°42'8 9.1 330 / 141009.6 13.1 14.1
2018-Jun-15 08:04N 35°43' W 121°32'224.3
2018-Jun-15 08:00N 35°42' W 121°30'286.4 320 / 111009.8 12.5 11.2
2018-Jun-15 07:58N 35°43' W 121°32'2 1.7
2018-Jun-15 07:00N 35°42' W 121°30'5 4.9 330 / 81010.3 11.0
2018-Jun-15 06:00N 35°42' W 121°24'0 0.0 300 / 111010.5 11.0
2018-Jun-15 05:00N 35°42' W 121°24'5 4.9 310 / 61010.2 10.8
2018-Jun-15 04:00N 35°42' W 121°18'216.1 320 / 101009.9 11.5 11.0
2018-Jun-15 03:50N 35°40' W 121°20'1 1.8
2018-Jun-15 03:19N 35°41' W 121°20'310.2
2018-Jun-15 03:00N 35°42' W 121°24'2 5.0 310 / 131009.7 11.8 11.0
2018-Jun-15 02:38N 35°42' W 121°22'1 9.2
2018-Jun-15 02:29N 35°42' W 121°24'0 0.8
2018-Jun-15 02:00N 35°42' W 121°24'211.6 300 / 151010.0 12.3 11.2
2018-Jun-15 01:49N 35°42' W 121°26'3 3.5
2018-Jun-15 01:00N 35°42' W 121°30'1 7.9 320 / 141010.2 13.0 11.8
2018-Jun-15 00:55N 35°42' W 121°31'7 7.8
2018-Jun-15 00:00N 35°48' W 121°36'6 6.0 320 / 141010.9 12.9 12.0
2018-Jun-14 23:00N 35°54' W 121°36'811.5 310 / 141011.9 12.8 12.6
2018-Jun-14 22:17N 35°52' W 121°46'2 8.5
2018-Jun-14 22:00N 35°54' W 121°48'1212.0 310 / 151012.1 13.3 14.2
2018-Jun-14 21:00N 35°42' W 121°48'6 6.0 300 / 211011.9 13.3 14.2
2018-Jun-14 20:00N 35°36' W 121°48'1 7.4 300 / 221012.0 13.3 13.6
2018-Jun-14 19:51N 35°35' W 121°47'5 6.0
2018-Jun-14 19:00N 35°30' W 121°48'10 9.8 310 / 211012.3 13.0 12.5
2018-Jun-14 18:00N 35°30' W 121°36'5 4.9 340 / 201011.6 12.2 11.1
2018-Jun-14 17:00N 35°30' W 121°30'5 4.9 340 / 271011.3 11.6 11.1
2018-Jun-14 16:00N 35°30' W 121°24'3 3.4 330 / 111011.4 10.3 10.8
2018-Jun-14 15:14N 35°28' W 121°22'210.1
2018-Jun-14 15:00N 35°26' W 121°22'2174.0
2018-Jun-14 15:00N 35°24' W 121°24'4 7.4 320 / 221010.4 11.2 11.7
2018-Jun-14 14:30N 35°21' W 121°22'5 9.8
2018-Jun-14 14:00N 35°16' W 121°23'4291.1
2018-Jun-14 14:00N 35°12' W 121°24'3 5.7 320 / 191009.6 11.7 12.3
2018-Jun-14 13:30N 35°12' W 121°21'5 9.5
2018-Jun-14 13:00N 35°09' W 121°16'4269.1
2018-Jun-14 13:00N 35°06' W 121°12'1 2.2 340 / 201009.6 11.2 12.3
2018-Jun-14 12:31N 35°06' W 121°11'5 9.7
2018-Jun-14 12:01N 35°04' W 121°06'2111.2
2018-Jun-14 12:00N 35°06' W 121°06'612.2 350 / 161009.5 11.2 12.5
2018-Jun-14 11:30N 35°02' W 121°00'1 2.1
2018-Jun-14 11:00N 35°01' W 120°59'1136.4
2018-Jun-14 11:00N 35°00' W 121°00'1 2.9 330 / 131010.1 11.2 12.8
2018-Jun-14 10:30N 35°01' W 120°59'1 2.3
2018-Jun-14 10:00N 35°00' W 120°58'2107.4
2018-Jun-14 10:00N 35°00' W 121°00'2 3.3 010 / 111010.8 11.2 12.7
2018-Jun-14 09:31N 35°01' W 120°58'0 0.7
2018-Jun-14 09:00N 35°01' W 120°58'192.3
2018-Jun-14 09:00N 35°00' W 121°00'3 5.4 320 / 121010.6 11.4 12.6
2018-Jun-14 08:30N 34°60' W 120°57'2 3.4
2018-Jun-14 08:00N 34°59' W 120°55'165.4
2018-Jun-14 08:00N 35°00' W 120°54'1 2.2 360 / 201010.6 11.2 12.0
2018-Jun-14 07:31N 34°60' W 120°53'4 7.8
2018-Jun-14 07:00N 35°00' W 120°48'3 4.1 340 / 151010.5 10.7 11.5
2018-Jun-14 06:20N 35°01' W 120°45'1 2.2
2018-Jun-14 06:00N 35°01' W 120°44'2107.5
2018-Jun-14 06:00N 35°00' W 120°42'2 3.1 330 / 81010.6 10.4 12.3
2018-Jun-14 05:30N 35°00' W 120°44'1 1.2
2018-Jun-14 05:00N 35°01' W 120°44'2154.3
2018-Jun-14 05:00N 35°00' W 120°42'1 2.4 310 / 91010.5 11.0 12.6
2018-Jun-14 04:30N 34°60' W 120°43'2 4.7
2018-Jun-14 04:00N 35°00' W 120°46'1173.0
2018-Jun-14 04:00N 35°00' W 120°48'5 4.9 320 / 91009.9 11.9 12.3
2018-Jun-14 03:00N 35°00' W 120°42'2 4.8 290 / 51010.0 12.5 12.6
2018-Jun-14 02:40N 34°60' W 120°44'0 1.3
2018-Jun-14 02:22N 34°60' W 120°44'2 5.5
2018-Jun-14 02:00N 34°60' W 120°46'1671.4
2018-Jun-14 02:00N 35°00' W 120°48'1 2.8 300 / 111009.8 13.0 12.7
2018-Jun-14 01:27N 35°00' W 120°46'1 3.2
2018-Jun-14 01:00N 35°00' W 120°48'3 5.6 270 / 71010.1 13.1 12.8
2018-Jun-14 00:28N 35°00' W 120°44'3 6.9
2018-Jun-14 00:01N 34°57' W 120°44'4216.0
2018-Jun-14 00:00N 34°54' W 120°42'2 4.5 260 / 71010.8 13.1 13.1
2018-Jun-13 23:29N 34°53' W 120°44'1 3.1
2018-Jun-13 23:00N 34°52' W 120°46'3174.1
2018-Jun-13 23:00N 34°54' W 120°48'4 7.5 300 / 71011.4 12.9 12.3
2018-Jun-13 22:30N 34°52' W 120°52'2 3.1
2018-Jun-13 22:00N 34°52' W 120°54'2153.1
2018-Jun-13 22:00N 34°54' W 120°54'3 7.2 300 / 121011.9 12.9 12.7
2018-Jun-13 21:31N 34°52' W 120°57'5 9.6
2018-Jun-13 21:00N 34°52' W 121°03'3212.0
2018-Jun-13 21:00N 34°54' W 121°00'3 6.6 300 / 101012.1 13.1 12.5
2018-Jun-13 20:30N 34°52' W 121°03'3 5.8
2018-Jun-13 20:01N 34°52' W 121°06'2129.1
2018-Jun-13 20:00N 34°54' W 121°06'611.9 310 / 141012.4 13.1 12.9
2018-Jun-13 19:31N 34°52' W 121°12'0 0.7
2018-Jun-13 19:00N 34°52' W 121°13'2146.3
2018-Jun-13 19:00N 34°54' W 121°12'1 1.1 340 / 121012.3 13.1 13.1
2018-Jun-13 18:30N 34°54' W 121°13'510.7
2018-Jun-13 18:00N 34°60' W 121°13'142.4
2018-Jun-13 18:00N 35°00' W 121°12'510.5 320 / 91011.9 12.8 12.6
2018-Jun-13 17:30N 35°05' W 121°13'2 4.3
2018-Jun-13 17:00N 35°07' W 121°13'1174.6
2018-Jun-13 17:00N 35°06' W 121°12'2 3.9 340 / 71011.2 11.6 12.0
2018-Jun-13 16:30N 35°07' W 121°10'5 9.7
2018-Jun-13 16:00N 35°07' W 121°04'1 2.0
2018-Jun-13 15:31N 35°07' W 121°03'3 5.6
2018-Jun-13 15:00N 35°05' W 121°00'166.7
2018-Jun-13 15:00N 35°06' W 121°00'511.0 300 / 21010.4 10.1 12.5
2018-Jun-13 14:30N 35°02' W 120°56'3 6.1
2018-Jun-13 14:00N 35°00' W 120°53'162.7
2018-Jun-13 14:00N 35°00' W 120°54'2 4.3 120 / 41009.9 10.4 12.0
2018-Jun-13 13:30N 34°60' W 120°57'2 3.2
2018-Jun-13 13:01N 34°60' W 120°58'175.2
2018-Jun-13 13:00N 35°00' W 121°00'1 2.3 080 / 31009.4 11.1 12.4
2018-Jun-13 12:30N 34°59' W 121°01'5 9.6
2018-Jun-13 12:00N 35°01' W 121°06'187.4
2018-Jun-13 12:00N 35°00' W 121°06'2 4.4 310 / 211009.1 11.3 12.4
2018-Jun-13 11:30N 35°01' W 121°08'0 0.5
2018-Jun-13 11:00N 35°01' W 121°08'2248.3
2018-Jun-13 11:00N 35°00' W 121°06'1 0.9 330 / 91009.2 12.2 12.4
2018-Jun-13 10:24N 34°60' W 121°07'2 5.2
2018-Jun-13 10:00N 35°00' W 121°04'3211.2
2018-Jun-13 10:00N 35°00' W 121°00'2 4.3 360 / 111009.2 11.4 12.6
2018-Jun-13 09:30N 35°02' W 120°60'2 4.1
2018-Jun-13 09:00N 35°00' W 121°00'2192.6 080 / 21009.5 10.4 12.6
2018-Jun-13 08:59N 35°01' W 120°58'2 3.1
2018-Jun-13 08:30N 35°01' W 120°56'2 3.5
2018-Jun-13 08:00N 35°01' W 120°54'162.7
2018-Jun-13 08:00N 35°00' W 120°54'2 3.2 010 / 31010.1 10.3 12.4
2018-Jun-13 07:20N 35°01' W 120°52'2 6.7
2018-Jun-13 07:01N 35°02' W 120°49'2112.7
2018-Jun-13 07:00N 35°00' W 120°48'0 0.8 060 / 31010.1 9.5 11.3
2018-Jun-13 06:30N 35°00' W 120°48'0 0.8
2018-Jun-13 06:00N 35°00' W 120°48'1121.1 330 / 41010.4 10.0 11.8
2018-Jun-13 05:59N 34°60' W 120°47'2 3.5
2018-Jun-13 05:20N 35°00' W 120°44'1 2.2
2018-Jun-13 05:00N 34°60' W 120°43'182.3
2018-Jun-13 05:00N 35°00' W 120°42'1 1.9 280 / 61010.4 10.1 11.2
2018-Jun-13 04:26N 34°60' W 120°43'2 5.4
2018-Jun-13 04:00N 34°60' W 120°46'2119.2
2018-Jun-13 04:00N 35°00' W 120°48'5 4.9 310 / 111010.5 10.6 11.8
2018-Jun-13 03:00N 35°00' W 120°42'2 7.0 280 / 81010.2 10.7 11.8
2018-Jun-13 02:46N 35°00' W 120°44'3 8.9
2018-Jun-13 02:28N 35°01' W 120°47'4 9.5
2018-Jun-13 02:00N 35°05' W 120°50'3213.8
2018-Jun-13 02:00N 35°06' W 120°54'1 2.5 320 / 141009.9 10.8 11.5
2018-Jun-13 01:30N 35°07' W 120°54'3 5.6
2018-Jun-13 01:00N 35°07' W 120°57'3181.9
2018-Jun-13 01:00N 35°06' W 121°00'2 5.0 310 / 161010.2 11.1 12.7
2018-Jun-13 00:30N 35°07' W 121°02'1 1.6
2018-Jun-13 00:00N 35°07' W 121°03'2188.0
2018-Jun-13 00:00N 35°06' W 121°06'4 7.7 320 / 101010.5 11.9 12.8
2018-Jun-12 23:30N 35°10' W 121°06'611.9
2018-Jun-12 23:00N 35°14' W 121°12'4527.8
2018-Jun-12 23:00N 35°18' W 121°12'4 8.8 330 / 161011.0 13.1 11.3
2018-Jun-12 22:30N 35°18' W 121°17'816.4
2018-Jun-12 22:00N 35°24' W 121°24'243.1 330 / 181011.4 11.9 11.8
2018-Jun-12 21:57N 35°22' W 121°23'812.1
2018-Jun-12 21:15N 35°28' W 121°31'517.7
2018-Jun-12 21:00N 35°30' W 121°36'160.8 320 / 161011.6 14.6 11.0
2018-Jun-12 20:58N 35°30' W 121°34'1616.7
2018-Jun-12 20:00N 35°42' W 121°48'1312.9 320 / 221012.3 12.2 12.2
2018-Jun-12 19:00N 35°54' W 121°54'   330 / 191012.1 11.7 12.5

Dump ship's entire track history